createdAt,value
2022-10-23T00:00:24.745Z,13.99
2022-10-23T00:02:56.810Z,13.99
2022-10-23T00:05:28.818Z,13.99
2022-10-23T00:08:01.615Z,13.99
2022-10-23T00:10:32.618Z,13.99
2022-10-23T00:13:03.993Z,13.99
2022-10-23T00:15:37.584Z,13.99
2022-10-23T00:18:08.640Z,14.00
2022-10-23T00:20:39.515Z,14.00
2022-10-23T00:23:10.498Z,13.99
2022-10-23T00:25:41.508Z,13.99
2022-10-23T00:28:13.115Z,13.98
2022-10-23T00:30:44.076Z,13.97
2022-10-23T00:33:14.902Z,13.96
2022-10-23T00:35:45.752Z,13.96
2022-10-23T00:38:16.661Z,13.96
2022-10-23T00:40:47.748Z,13.94
2022-10-23T00:43:23.572Z,13.93
2022-10-23T00:45:55.351Z,13.92
2022-10-23T00:48:27.204Z,13.91
2022-10-23T00:50:58.213Z,13.89
2022-10-23T00:53:29.619Z,13.90
2022-10-23T00:56:03.281Z,13.87
2022-10-23T00:58:34.653Z,13.85
2022-10-23T01:01:17.184Z,13.84
2022-10-23T01:03:48.909Z,13.82
2022-10-23T01:06:28.761Z,13.80
2022-10-23T01:09:08.085Z,13.80
2022-10-23T01:11:47.113Z,13.79
2022-10-23T01:14:27.831Z,13.79
2022-10-23T01:17:07.251Z,13.80
2022-10-23T01:19:56.082Z,13.80
2022-10-23T01:22:48.229Z,13.79
2022-10-23T01:25:31.133Z,13.79
2022-10-23T01:28:06.362Z,13.81
2022-10-23T01:33:24.455Z,13.80
2022-10-23T01:36:02.868Z,13.80
2022-10-23T01:38:40.591Z,13.80
2022-10-23T01:41:29.514Z,13.81
2022-10-23T01:44:06.437Z,13.80
2022-10-23T01:46:40.900Z,13.80
2022-10-23T01:49:15.423Z,13.80
2022-10-23T01:51:54.022Z,13.81
2022-10-23T01:54:30.720Z,13.81
2022-10-23T01:57:05.757Z,13.81
2022-10-23T01:59:37.288Z,13.82
2022-10-23T02:02:12.890Z,13.82
2022-10-23T02:04:52.477Z,13.82
2022-10-23T02:07:23.731Z,13.82
2022-10-23T02:09:55.058Z,13.82
2022-10-23T02:12:37.972Z,13.83
2022-10-23T02:15:15.370Z,13.83
2022-10-23T02:17:56.820Z,13.83
2022-10-23T02:20:36.991Z,13.84
2022-10-23T02:23:20.518Z,13.84
2022-10-23T02:25:57.998Z,13.86
2022-10-23T02:28:35.300Z,13.86
2022-10-23T02:31:09.845Z,13.86
2022-10-23T02:33:40.864Z,13.88
2022-10-23T02:36:13.100Z,13.88
2022-10-23T02:38:45.458Z,13.88
2022-10-23T02:41:33.075Z,13.89
2022-10-23T02:44:16.061Z,13.88
2022-10-23T02:46:57.572Z,13.86
2022-10-23T02:49:36.970Z,13.85
2022-10-23T02:52:17.401Z,13.85
2022-10-23T02:55:11.124Z,13.85
2022-10-23T02:57:58.942Z,13.84
2022-10-23T03:00:34.319Z,13.85
2022-10-23T03:03:07.351Z,13.86
2022-10-23T03:05:40.694Z,13.85
2022-10-23T03:08:13.659Z,13.86
2022-10-23T03:10:45.774Z,13.86
2022-10-23T03:13:18.079Z,13.86
2022-10-23T03:15:48.984Z,13.86
2022-10-23T03:18:19.874Z,13.85
2022-10-23T03:20:53.692Z,13.85
2022-10-23T03:23:26.243Z,13.87
2022-10-23T03:25:57.302Z,13.89
2022-10-23T03:28:36.341Z,13.91
2022-10-23T03:31:07.481Z,13.93
2022-10-23T03:33:38.615Z,13.95
2022-10-23T03:36:14.587Z,13.97
2022-10-23T03:38:47.436Z,13.99
2022-10-23T03:41:18.441Z,14.00
2022-10-23T03:43:49.497Z,14.01
2022-10-23T03:46:20.397Z,14.01
2022-10-23T03:48:58.282Z,14.03
2022-10-23T03:51:29.601Z,14.03
2022-10-23T03:54:01.926Z,14.04
2022-10-23T03:56:33.018Z,14.03
2022-10-23T03:59:04.138Z,14.02
2022-10-23T04:01:35.386Z,14.01
2022-10-23T04:04:06.329Z,14.00
2022-10-23T04:06:37.588Z,13.98
2022-10-23T04:09:09.098Z,13.97
2022-10-23T04:11:43.001Z,13.95
2022-10-23T04:14:16.024Z,13.95
2022-10-23T04:16:46.841Z,13.95
2022-10-23T04:19:18.657Z,13.93
2022-10-23T04:21:49.780Z,13.92
2022-10-23T04:24:20.845Z,13.90
2022-10-23T04:26:51.777Z,13.88
2022-10-23T04:29:24.678Z,13.87
2022-10-23T04:31:55.573Z,13.86
2022-10-23T04:34:26.652Z,13.85
2022-10-23T04:36:58.137Z,13.84
2022-10-23T04:39:28.968Z,13.85
2022-10-23T04:41:59.878Z,13.86
2022-10-23T04:44:30.864Z,13.86
2022-10-23T04:47:01.890Z,13.86
2022-10-23T04:49:33.004Z,13.87
2022-10-23T04:52:16.055Z,13.88
2022-10-23T04:54:57.209Z,13.89
2022-10-23T04:57:37.060Z,13.90
2022-10-23T05:00:14.697Z,13.91
2022-10-23T05:02:53.621Z,13.91
2022-10-23T05:05:25.406Z,13.90
2022-10-23T05:08:14.228Z,13.89
2022-10-23T05:11:11.480Z,13.88
2022-10-23T05:13:47.160Z,13.84
2022-10-23T05:16:37.503Z,13.81
2022-10-23T05:19:11.889Z,13.79
2022-10-23T05:21:46.483Z,13.76
2022-10-23T05:24:18.543Z,13.72
2022-10-23T05:26:59.294Z,13.69
2022-10-23T05:29:30.193Z,13.65
2022-10-23T05:32:07.077Z,13.63
2022-10-23T05:34:39.817Z,13.60
2022-10-23T05:37:15.335Z,13.59
2022-10-23T05:39:46.637Z,13.58
2022-10-23T05:42:20.728Z,13.57
2022-10-23T05:44:51.994Z,13.56
2022-10-23T05:47:47.685Z,13.53
2022-10-23T05:50:47.655Z,13.50
2022-10-23T05:53:30.033Z,13.49
2022-10-23T05:56:26.943Z,13.48
2022-10-23T05:59:05.362Z,13.47
2022-10-23T06:01:54.590Z,13.44
2022-10-23T06:04:34.981Z,13.41
2022-10-23T06:07:29.179Z,13.39
2022-10-23T06:10:02.209Z,13.37
2022-10-23T06:12:34.254Z,13.37
2022-10-23T06:15:06.277Z,13.36
2022-10-23T06:17:54.106Z,13.36
2022-10-23T06:20:27.881Z,13.36
2022-10-23T06:23:08.498Z,13.36
2022-10-23T06:25:59.719Z,13.35
2022-10-23T06:28:37.367Z,13.37
2022-10-23T06:31:09.807Z,13.40
2022-10-23T06:33:40.928Z,13.44
2022-10-23T06:36:13.025Z,13.49
2022-10-23T06:38:45.468Z,13.55
2022-10-23T06:41:20.739Z,13.68
2022-10-23T06:43:56.702Z,14.04
2022-10-23T06:46:33.272Z,14.70
2022-10-23T06:49:24.690Z,15.44
2022-10-23T06:51:57.548Z,15.86
2022-10-23T06:54:28.553Z,15.99
2022-10-23T06:57:15.135Z,16.04
2022-10-23T06:59:49.419Z,16.02
2022-10-23T07:02:20.478Z,15.94
2022-10-23T07:04:52.196Z,15.86
2022-10-23T07:07:23.857Z,15.76
2022-10-23T07:09:54.892Z,15.67
2022-10-23T07:12:32.260Z,15.57
2022-10-23T07:15:25.938Z,15.45
2022-10-23T07:17:57.508Z,15.36
2022-10-23T07:20:29.188Z,15.28
2022-10-23T07:23:00.144Z,15.22
2022-10-23T07:25:35.919Z,15.15
2022-10-23T07:28:09.801Z,15.10
2022-10-23T07:30:41.641Z,15.07
2022-10-23T07:33:14.863Z,15.04
2022-10-23T07:35:58.445Z,15.02
2022-10-23T07:38:32.206Z,14.99
2022-10-23T07:41:05.835Z,14.97
2022-10-23T07:43:39.080Z,14.94
2022-10-23T07:46:10.618Z,14.93
2022-10-23T07:48:43.736Z,14.94
2022-10-23T07:51:17.024Z,14.94
2022-10-23T07:53:49.875Z,14.95
2022-10-23T07:56:31.652Z,15.00
2022-10-23T07:59:24.761Z,15.09
2022-10-23T08:01:57.794Z,15.17
2022-10-23T08:04:33.668Z,15.24
2022-10-23T08:07:19.136Z,15.30
2022-10-23T08:09:51.332Z,15.32
2022-10-23T08:12:22.323Z,15.36
2022-10-23T08:14:58.119Z,15.39
2022-10-23T08:17:30.455Z,15.42
2022-10-23T08:20:15.320Z,15.42
2022-10-23T08:22:47.634Z,15.45
2022-10-23T08:25:25.102Z,15.49
2022-10-23T08:27:56.949Z,15.51
2022-10-23T08:30:28.134Z,15.54
2022-10-23T08:32:59.328Z,15.57
2022-10-23T08:35:30.194Z,15.58
2022-10-23T08:38:01.391Z,15.60
2022-10-23T08:40:34.216Z,15.62
2022-10-23T08:43:40.078Z,15.62
2022-10-23T08:46:29.974Z,15.62
2022-10-23T08:49:41.563Z,15.61
2022-10-23T08:52:21.611Z,15.61
2022-10-23T08:55:18.080Z,15.61
2022-10-23T08:57:54.525Z,15.64
2022-10-23T09:00:25.464Z,15.68
2022-10-23T09:02:57.016Z,15.72
2022-10-23T09:05:32.524Z,15.74
2022-10-23T09:08:22.728Z,15.77
2022-10-23T09:11:05.333Z,15.80
2022-10-23T09:14:06.184Z,15.85
2022-10-23T09:16:50.640Z,15.91
2022-10-23T09:19:27.114Z,15.98
2022-10-23T09:21:59.085Z,16.07
2022-10-23T09:24:31.838Z,16.15
2022-10-23T09:29:36.186Z,16.24
2022-10-23T09:32:08.889Z,16.26
2022-10-23T09:34:50.767Z,16.26
2022-10-23T09:37:25.513Z,16.27
2022-10-23T09:40:15.642Z,16.26
2022-10-23T09:42:56.926Z,16.24
2022-10-23T09:45:31.659Z,16.22
2022-10-23T09:48:17.588Z,16.23
2022-10-23T09:50:57.633Z,16.25
2022-10-23T09:53:34.038Z,16.31
2022-10-23T09:56:11.955Z,16.42
2022-10-23T09:58:54.967Z,16.52
2022-10-23T10:01:30.772Z,16.58
2022-10-23T10:04:15.435Z,16.59
2022-10-23T10:06:46.904Z,16.56
2022-10-23T10:09:19.360Z,16.52
2022-10-23T10:11:55.292Z,16.51
2022-10-23T10:14:46.952Z,16.48
2022-10-23T10:17:28.946Z,16.46
2022-10-23T10:20:29.915Z,16.45
2022-10-23T10:23:05.967Z,16.45
2022-10-23T10:25:45.712Z,16.45
2022-10-23T10:28:32.240Z,16.44
2022-10-23T10:31:16.587Z,16.43
2022-10-23T10:33:58.217Z,16.44
2022-10-23T10:36:42.475Z,16.43
2022-10-23T10:39:26.778Z,16.40
2022-10-23T10:42:08.789Z,16.42
2022-10-23T10:44:51.502Z,16.45
2022-10-23T10:47:29.904Z,16.44
2022-10-23T10:50:16.159Z,16.43
2022-10-23T10:53:19.512Z,16.41
2022-10-23T10:55:54.930Z,16.38
2022-10-23T10:58:33.235Z,16.35
2022-10-23T11:01:12.371Z,16.36
2022-10-23T11:03:49.990Z,16.39
2022-10-23T11:06:28.419Z,16.42
2022-10-23T11:09:19.419Z,16.42
2022-10-23T11:11:52.132Z,16.40
2022-10-23T11:14:25.500Z,16.37
2022-10-23T11:17:03.244Z,16.34
2022-10-23T11:19:41.224Z,16.29
2022-10-23T11:22:19.430Z,16.25
2022-10-23T11:25:26.991Z,16.20
2022-10-23T11:28:21.341Z,16.15
2022-10-23T11:31:11.897Z,16.13
2022-10-23T11:34:02.955Z,16.11
2022-10-23T11:36:45.656Z,16.11
2022-10-23T11:39:23.026Z,16.14
2022-10-23T11:42:16.574Z,16.17
2022-10-23T11:44:49.606Z,16.22
2022-10-23T11:47:38.840Z,16.27
2022-10-23T11:50:29.927Z,16.36
2022-10-23T11:53:15.225Z,16.48
2022-10-23T11:56:05.377Z,16.64
2022-10-23T11:58:48.317Z,16.83
2022-10-23T12:01:32.315Z,16.99
2022-10-23T12:04:15.424Z,17.08
2022-10-23T12:06:49.014Z,17.16
2022-10-23T12:09:38.818Z,17.23
2022-10-23T12:12:29.385Z,17.29
2022-10-23T12:15:24.345Z,17.35
2022-10-23T12:17:56.780Z,17.39
2022-10-23T12:20:45.986Z,17.40
2022-10-23T12:23:35.071Z,17.40
2022-10-23T12:26:34.373Z,17.36
2022-10-23T12:29:20.200Z,17.29
2022-10-23T12:32:00.840Z,17.24
2022-10-23T12:34:46.484Z,17.19
2022-10-23T12:37:42.278Z,17.14
2022-10-23T12:40:13.365Z,17.08
2022-10-23T12:42:53.776Z,17.04
2022-10-23T12:45:27.299Z,16.97
2022-10-23T12:47:58.457Z,16.91
2022-10-23T12:50:31.373Z,16.86
2022-10-23T12:53:04.489Z,16.80
2022-10-23T12:55:52.807Z,16.75
2022-10-23T12:58:27.338Z,16.70
2022-10-23T13:01:02.031Z,16.66
2022-10-23T13:03:35.302Z,16.63
2022-10-23T13:06:06.930Z,16.60
2022-10-23T13:08:42.992Z,16.58
2022-10-23T13:11:29.347Z,16.57
2022-10-23T13:14:02.115Z,16.56
2022-10-23T13:16:32.914Z,16.54
2022-10-23T13:19:03.765Z,16.53
2022-10-23T13:21:36.083Z,16.50
2022-10-23T13:24:19.034Z,16.48
2022-10-23T13:26:50.038Z,16.44
2022-10-23T13:31:56.273Z,16.41
2022-10-23T13:34:29.570Z,16.39
2022-10-23T13:37:05.863Z,16.37
2022-10-23T13:39:36.875Z,16.35
2022-10-23T13:42:15.891Z,16.33
2022-10-23T13:44:47.427Z,16.30
2022-10-23T13:47:18.817Z,16.27
2022-10-23T13:49:49.972Z,16.24
2022-10-23T13:52:24.595Z,16.23
2022-10-23T13:54:55.509Z,16.21
2022-10-23T13:57:27.124Z,16.19
2022-10-23T13:59:58.009Z,16.19
2022-10-23T14:02:29.541Z,16.19
2022-10-23T14:05:00.496Z,16.19
2022-10-23T14:07:31.409Z,16.20
2022-10-23T14:10:02.353Z,16.20
2022-10-23T14:12:39.362Z,16.19
2022-10-23T14:15:12.772Z,16.19
2022-10-23T14:17:43.665Z,16.19
2022-10-23T14:20:17.264Z,16.21
2022-10-23T14:22:49.347Z,16.22
2022-10-23T14:25:20.314Z,16.21
2022-10-23T14:27:51.361Z,16.20
2022-10-23T14:30:22.208Z,16.18
2022-10-23T14:32:53.298Z,16.14
2022-10-23T14:35:25.717Z,16.11
2022-10-23T14:37:57.997Z,16.07
2022-10-23T14:40:28.966Z,16.04
2022-10-23T14:42:59.917Z,16.01
2022-10-23T14:45:30.898Z,15.97
2022-10-23T14:48:03.002Z,15.92
2022-10-23T14:50:35.745Z,15.88
2022-10-23T14:53:09.916Z,15.84
2022-10-23T14:55:41.265Z,15.81
2022-10-23T14:58:12.309Z,15.79
2022-10-23T15:00:43.170Z,15.78
2022-10-23T15:03:16.735Z,15.76
2022-10-23T15:05:47.545Z,15.74
2022-10-23T15:08:18.407Z,15.71
2022-10-23T15:10:49.217Z,15.70
2022-10-23T15:13:20.275Z,15.68
2022-10-23T15:15:51.173Z,15.67
2022-10-23T15:18:22.450Z,15.66
2022-10-23T15:20:56.042Z,15.65
2022-10-23T15:23:27.097Z,15.64
2022-10-23T15:26:04.341Z,15.62
2022-10-23T15:28:35.730Z,15.61
2022-10-23T15:31:22.948Z,15.58
2022-10-23T15:33:55.984Z,15.57
2022-10-23T15:36:27.469Z,15.56
2022-10-23T15:38:58.477Z,15.56
2022-10-23T15:41:31.927Z,15.55
2022-10-23T15:44:04.297Z,15.55
2022-10-23T15:46:35.719Z,15.52
2022-10-23T15:49:08.532Z,15.52
2022-10-23T15:51:40.477Z,15.51
2022-10-23T15:54:17.169Z,15.53
2022-10-23T15:56:49.028Z,15.55
2022-10-23T15:59:20.596Z,15.57
2022-10-23T16:01:52.488Z,15.59
2022-10-23T16:04:23.578Z,15.61
2022-10-23T16:06:54.443Z,15.60
2022-10-23T16:09:25.361Z,15.59
2022-10-23T16:11:56.325Z,15.58
2022-10-23T16:14:27.601Z,15.57
2022-10-23T16:16:58.506Z,15.55
2022-10-23T16:19:29.384Z,15.53
2022-10-23T16:22:04.290Z,15.50
2022-10-23T16:24:35.622Z,15.46
2022-10-23T16:27:06.602Z,15.42
2022-10-23T16:29:37.882Z,15.39
2022-10-23T16:32:09.131Z,15.38
2022-10-23T16:34:40.707Z,15.37
2022-10-23T16:37:11.948Z,15.35
2022-10-23T16:39:53.187Z,15.31
2022-10-23T16:42:43.084Z,15.28
2022-10-23T16:45:18.200Z,15.26
2022-10-23T16:47:49.101Z,15.25
2022-10-23T16:50:20.170Z,15.24
2022-10-23T16:52:53.368Z,15.22
2022-10-23T16:55:26.712Z,15.20
2022-10-23T16:58:00.733Z,15.18
2022-10-23T17:00:35.321Z,15.16
2022-10-23T17:03:07.824Z,15.15
2022-10-23T17:05:39.198Z,15.14
2022-10-23T17:08:10.296Z,15.14
2022-10-23T17:10:42.078Z,15.15
2022-10-23T17:13:13.011Z,15.14
2022-10-23T17:15:43.990Z,15.14
2022-10-23T17:18:15.148Z,15.13
2022-10-23T17:20:46.071Z,15.14
2022-10-23T17:23:17.101Z,15.14
2022-10-23T17:25:50.107Z,15.14
2022-10-23T17:28:21.105Z,15.14
2022-10-23T17:30:52.090Z,15.12
2022-10-23T17:33:22.981Z,15.11
2022-10-23T17:35:54.685Z,15.11
2022-10-23T17:38:26.702Z,15.10
2022-10-23T17:40:57.550Z,15.10
2022-10-23T17:43:28.424Z,15.09
2022-10-23T17:45:59.523Z,15.08
2022-10-23T17:48:30.486Z,15.07
2022-10-23T17:51:06.730Z,15.06
2022-10-23T17:53:39.156Z,15.04
2022-10-23T17:56:13.325Z,15.04
2022-10-23T17:58:44.153Z,15.02
2022-10-23T18:01:17.742Z,15.00
2022-10-23T18:03:48.906Z,14.97
2022-10-23T18:06:24.544Z,14.93
2022-10-23T18:08:58.327Z,14.90
2022-10-23T18:11:31.391Z,14.85
2022-10-23T18:14:03.274Z,14.79
2022-10-23T18:16:34.716Z,14.74
2022-10-23T18:19:06.832Z,14.70
2022-10-23T18:21:38.095Z,14.67
2022-10-23T18:24:11.597Z,14.62
2022-10-23T18:26:44.234Z,14.58
2022-10-23T18:29:18.620Z,14.54
2022-10-23T18:31:50.779Z,14.48
2022-10-23T18:34:23.977Z,14.44
2022-10-23T18:36:56.181Z,14.40
2022-10-23T18:39:30.441Z,14.35
2022-10-23T18:42:01.621Z,14.29
2022-10-23T18:44:32.587Z,14.25
2022-10-23T18:47:03.557Z,14.21
2022-10-23T18:49:34.729Z,14.19
2022-10-23T18:52:06.098Z,14.19
2022-10-23T18:54:36.998Z,14.17
2022-10-23T18:57:07.888Z,14.16
2022-10-23T18:59:38.912Z,14.13
2022-10-23T19:02:11.345Z,14.10
2022-10-23T19:04:42.554Z,14.07
2022-10-23T19:07:13.594Z,14.01
2022-10-23T19:09:44.436Z,13.98
2022-10-23T19:12:17.704Z,13.93
2022-10-23T19:14:48.881Z,13.88
2022-10-23T19:17:26.170Z,13.83
2022-10-23T19:20:01.488Z,13.77
2022-10-23T19:22:35.927Z,13.72
2022-10-23T19:25:12.825Z,13.68
2022-10-23T19:27:47.074Z,13.65
2022-10-23T19:30:22.570Z,13.61
2022-10-23T19:32:55.568Z,13.57
2022-10-23T19:35:26.397Z,13.50
2022-10-23T19:37:57.180Z,13.45
2022-10-23T19:40:28.425Z,13.40
2022-10-23T19:43:00.343Z,13.36
2022-10-23T19:48:07.670Z,13.29
2022-10-23T19:50:38.991Z,13.26
2022-10-23T19:53:12.086Z,13.24
2022-10-23T19:55:43.279Z,13.22
2022-10-23T19:58:18.970Z,13.23
2022-10-23T20:00:51.972Z,13.23
2022-10-23T20:03:23.392Z,13.20
2022-10-23T20:06:01.097Z,13.18
2022-10-23T20:08:34.998Z,13.17
2022-10-23T20:11:06.946Z,13.15
2022-10-23T20:13:38.946Z,13.14
2022-10-23T20:16:17.265Z,13.13
2022-10-23T20:18:49.525Z,13.11
2022-10-23T20:21:21.448Z,13.09
2022-10-23T20:24:02.797Z,13.08
2022-10-23T20:26:33.938Z,13.07
2022-10-23T20:29:05.728Z,13.05
2022-10-23T20:31:39.603Z,13.02
2022-10-23T20:34:11.321Z,12.99
2022-10-23T20:36:46.670Z,12.95
2022-10-23T20:39:21.959Z,12.89
2022-10-23T20:42:01.569Z,12.82
2022-10-23T20:44:34.083Z,12.76
2022-10-23T20:47:04.994Z,12.72
2022-10-23T20:49:36.351Z,12.70
2022-10-23T20:52:07.465Z,12.66
2022-10-23T20:54:38.484Z,12.64
2022-10-23T20:57:17.971Z,12.65
2022-10-23T20:59:53.932Z,12.63
2022-10-23T21:02:38.344Z,12.60
2022-10-23T21:05:14.445Z,12.58
2022-10-23T21:07:49.375Z,12.56
2022-10-23T21:10:23.737Z,12.52
2022-10-23T21:12:54.848Z,12.48
2022-10-23T21:15:26.425Z,12.43
2022-10-23T21:18:04.009Z,12.39
2022-10-23T21:20:49.299Z,12.35
2022-10-23T21:23:20.695Z,12.30
2022-10-23T21:25:57.093Z,12.27
2022-10-23T21:28:28.551Z,12.26
2022-10-23T21:31:07.948Z,12.23
2022-10-23T21:33:43.867Z,12.20
2022-10-23T21:36:17.501Z,12.16
2022-10-23T21:38:50.321Z,12.15
2022-10-23T21:41:25.319Z,12.12
2022-10-23T21:43:58.305Z,12.11
2022-10-23T21:46:31.158Z,12.10
2022-10-23T21:49:04.559Z,12.09
2022-10-23T21:51:38.211Z,12.07
2022-10-23T21:54:13.350Z,12.06
2022-10-23T21:56:44.991Z,12.06
2022-10-23T21:59:21.252Z,12.06
2022-10-23T22:01:53.234Z,12.04
2022-10-23T22:04:25.513Z,12.03
2022-10-23T22:06:56.618Z,12.02
2022-10-23T22:09:27.650Z,12.01
2022-10-23T22:12:00.287Z,12.00
2022-10-23T22:14:36.561Z,11.97
2022-10-23T22:17:09.412Z,11.96
2022-10-23T22:19:41.901Z,11.94
2022-10-23T22:22:13.096Z,11.92
2022-10-23T22:24:44.172Z,11.91
2022-10-23T22:27:17.009Z,11.89
2022-10-23T22:29:48.301Z,11.86
2022-10-23T22:32:19.135Z,11.84
2022-10-23T22:34:53.075Z,11.83
2022-10-23T22:37:24.448Z,11.80
2022-10-23T22:39:56.904Z,11.79
2022-10-23T22:42:27.823Z,11.76
2022-10-23T22:44:58.741Z,11.73
2022-10-23T22:47:31.799Z,11.74
2022-10-23T22:50:02.643Z,11.73
2022-10-23T22:52:34.238Z,11.72
2022-10-23T22:55:06.252Z,11.71
2022-10-23T22:57:37.913Z,11.68
2022-10-23T23:00:11.512Z,11.65
2022-10-23T23:02:42.434Z,11.61
2022-10-23T23:05:14.718Z,11.60
2022-10-23T23:07:45.850Z,11.57
2022-10-23T23:10:16.893Z,11.55
2022-10-23T23:12:47.728Z,11.54
2022-10-23T23:15:20.713Z,11.53
2022-10-23T23:17:51.921Z,11.52
2022-10-23T23:20:23.430Z,11.52
2022-10-23T23:22:55.558Z,11.52
2022-10-23T23:25:26.441Z,11.51
2022-10-23T23:27:57.542Z,11.50
2022-10-23T23:30:28.667Z,11.49
2022-10-23T23:32:59.681Z,11.49
2022-10-23T23:35:30.578Z,11.49
2022-10-23T23:38:01.583Z,11.51
2022-10-23T23:40:32.486Z,11.51
2022-10-23T23:43:03.716Z,11.53
2022-10-23T23:45:35.054Z,11.56
2022-10-23T23:48:06.098Z,11.59
2022-10-23T23:50:37.037Z,11.62
2022-10-23T23:53:07.916Z,11.64
2022-10-23T23:55:39.199Z,11.67
2022-10-23T23:58:10.504Z,11.69
